Share

Morris, OK

3:46 PM CDT on April 23, 2014 (GMT -0500)
Okmulgee Regional (KOKM) Elev 722 ft | 35.67 °N, 95.95 °W | Change Station

Current weather conditions updated 11 minutes ago

Clear
Clear
84 °F
Feels Like 83 °F
N
17
Wind Variable Wind from South
Gusts 25 mph
Sunrise 6:40 AM
Sunset 8:03 PM
Moon Waning Crescent

Today is forecast to be Much Warmer than yesterday. Morning showers and thunderstorms.

Pressure 29.79 in
Visibility 10.0 miles
Clouds Clear
Heat Index 83 °F
Dew Point 57 °F
Humidity 41%
Rainfall 0.00 in
Snow Depth Not available.
UV 8 out of 16
Pollen 8.60 out of 12
Air Quality Not available.
Flu Activity Regional
METAR KOKM 232035Z AUTO 18015G22KT 10SM CLR 29/14 A2979 RMK AO2 T02860140

More Conditions Fewer Conditions

Pressure 29.79 in
Visibility 10.0 miles
Clouds Clear
Heat Index 83 °F
Dew Point 57 °F
Humidity 41%
Rainfall 0.00 in
Snow Depth Not available.
UV 8 out of 16
Pollen 8.60 out of 12
Air Quality Not available.
Flu Activity Regional
METAR KOKM 232035Z AUTO 18015G22KT 10SM CLR 29/14 A2979 RMK AO2 T02860140

More Conditions Fewer Conditions

10-Day Weather Forecast

Almanac

Astronomy

Apr. 23, 2014 Rise Set
Actual Time 6:40 AM CDT 8:03 PM CDT
Civil Twilight 6:13 AM CDT 8:30 PM CDT
Nautical Twilight 5:41 AM CDT 9:02 PM CDT
Astronomical Twilight 5:08 AM CDT 9:35 PM CDT
Moon 3:00 AM CDT 2:24 PM CDT
Length of Visible Light 14h 16m
Length of Day
13h 22m
Tomorrow will be 2m 2s longer.
Waning Crescent, 33% of the Moon is Illuminated
Today
Waning Crescent
Apr 29
New
May 6
First Quarter
May 14
Full
May 21
Last Quarter

Today's Extremes

State Highs State Lows

Community

  • Stunning Sunrise
    Stunning Sunrise
  • spring flowers
    spring flowers
  • Earth Day Spectrum Ove' Blue
    Earth Day Spectrum Ove' Blue
  • BARN B&W
    BARN B&W
  • April Sunset
    April Sunset

WunderPhotos

Upload Photos

1,704,409 photos uploaded!

WunderBlogs® & News

Nearby

Snow Depth

Station Depth Elevation
No new snow has been reported.

Coastal Water Temperatures

Place Temperature
No Stations Reporting

Earthquake Activity

City Distance Mag. Time & Date
Stillwater, Oklahoma 73 miles 2.8 5:30 PM CDT
2014-04-19
Enid, Oklahoma 129 miles 2.9 1:11 PM CDT
2014-04-19
Perry, Oklahoma 90 miles 4.0 5:43 AM CDT
2014-04-19
Stillwater, Oklahoma 73 miles 2.7 3:40 AM CDT
2014-04-19
Minimum magnitude displayed is 2.5.

Nearby Weather Stations

Station Location Temp. Heat Index Dew Point Humidity Wind Precip. Elev Updated Type
Double S Ranch, Beggs, OK 83.9 °F 83 °F 58 °F 41% South  at  20.0 mph 0.00 in / hr 778 ft 3:46 PM CDT Rapid Fire
RAWS CLEARVIEW OK, Okemah, OK 86 °F 84 °F 54 °F 33% ESE  at  6 mph 0.00 in / hr 979 ft 3:17 PM CDT MADIS
Phil and Carolyn's House, Bixby, OK 86.2 °F 87 °F 62 °F 44% SSE  at  0.0 mph 0.00 in / hr 707 ft 3:46 PM CDT Rapid Fire

Show More Stations Show Fewer Stations

What do you think?

We're not finished. Please let us know what you like, what you don't like, and what you are still missing.